sensor_id;sensor_type;location;lat;lon;timestamp;P1;durP1;ratioP1;P2;durP2;ratioP2
33501;SDS011;22396;51.070;4.974;2023-07-28T00:01:10;3.40;;;1.90;;
33501;SDS011;22396;51.070;4.974;2023-07-28T00:03:36;3.88;;;1.92;;
33501;SDS011;22396;51.070;4.974;2023-07-28T00:06:01;4.07;;;2.00;;
33501;SDS011;22396;51.070;4.974;2023-07-28T00:08:26;3.33;;;2.00;;
33501;SDS011;22396;51.070;4.974;2023-07-28T00:11:01;5.40;;;1.80;;
33501;SDS011;22396;51.070;4.974;2023-07-28T00:13:28;3.22;;;1.52;;
33501;SDS011;22396;51.070;4.974;2023-07-28T00:15:53;3.05;;;1.70;;
33501;SDS011;22396;51.070;4.974;2023-07-28T00:18:19;7.32;;;2.00;;
33501;SDS011;22396;51.070;4.974;2023-07-28T00:20:48;4.00;;;2.05;;
33501;SDS011;22396;51.070;4.974;2023-07-28T00:23:14;3.00;;;1.70;;
33501;SDS011;22396;51.070;4.974;2023-07-28T00:25:39;3.40;;;1.88;;
33501;SDS011;22396;51.070;4.974;2023-07-28T00:28:04;5.93;;;2.03;;
33501;SDS011;22396;51.070;4.974;2023-07-28T00:30:32;7.88;;;1.85;;
33501;SDS011;22396;51.070;4.974;2023-07-28T00:32:59;3.75;;;1.70;;
33501;SDS011;22396;51.070;4.974;2023-07-28T00:35:24;4.07;;;1.85;;
33501;SDS011;22396;51.070;4.974;2023-07-28T00:37:50;3.80;;;2.05;;
33501;SDS011;22396;51.070;4.974;2023-07-28T00:40:15;6.85;;;1.52;;
33501;SDS011;22396;51.070;4.974;2023-07-28T00:42:41;4.80;;;2.03;;
33501;SDS011;22396;51.070;4.974;2023-07-28T00:45:06;3.33;;;1.83;;
33501;SDS011;22396;51.070;4.974;2023-07-28T00:47:37;4.10;;;2.30;;
33501;SDS011;22396;51.070;4.974;2023-07-28T00:50:03;5.63;;;2.05;;
33501;SDS011;22396;51.070;4.974;2023-07-28T00:52:28;4.45;;;2.38;;
33501;SDS011;22396;51.070;4.974;2023-07-28T00:54:54;3.65;;;2.22;;
33501;SDS011;22396;51.070;4.974;2023-07-28T00:57:20;7.53;;;2.25;;
33501;SDS011;22396;51.070;4.974;2023-07-28T00:59:45;4.25;;;2.50;;
33501;SDS011;22396;51.070;4.974;2023-07-28T01:02:13;4.82;;;2.10;;
33501;SDS011;22396;51.070;4.974;2023-07-28T01:04:39;6.55;;;2.45;;
33501;SDS011;22396;51.070;4.974;2023-07-28T01:10:06;3.78;;;2.00;;
33501;SDS011;22396;51.070;4.974;2023-07-28T01:12:36;4.47;;;2.33;;
33501;SDS011;22396;51.070;4.974;2023-07-28T01:15:02;5.00;;;2.22;;
33501;SDS011;22396;51.070;4.974;2023-07-28T01:17:27;3.55;;;2.25;;
33501;SDS011;22396;51.070;4.974;2023-07-28T01:19:53;4.15;;;2.20;;
33501;SDS011;22396;51.070;4.974;2023-07-28T01:22:33;7.93;;;2.58;;
33501;SDS011;22396;51.070;4.974;2023-07-28T01:25:18;7.00;;;2.38;;
33501;SDS011;22396;51.070;4.974;2023-07-28T01:27:46;4.00;;;2.08;;
33501;SDS011;22396;51.070;4.974;2023-07-28T01:30:12;4.25;;;2.35;;
33501;SDS011;22396;51.070;4.974;2023-07-28T01:32:37;4.32;;;2.45;;
33501;SDS011;22396;51.070;4.974;2023-07-28T01:35:05;4.40;;;2.13;;
33501;SDS011;22396;51.070;4.974;2023-07-28T01:37:30;5.50;;;2.17;;
33501;SDS011;22396;51.070;4.974;2023-07-28T01:39:56;4.85;;;2.45;;
33501;SDS011;22396;51.070;4.974;2023-07-28T01:42:22;5.38;;;2.42;;
33501;SDS011;22396;51.070;4.974;2023-07-28T01:44:48;3.80;;;2.22;;
33501;SDS011;22396;51.070;4.974;2023-07-28T01:47:13;4.03;;;1.92;;
33501;SDS011;22396;51.070;4.974;2023-07-28T01:49:44;4.00;;;2.17;;
33501;SDS011;22396;51.070;4.974;2023-07-28T01:52:09;3.58;;;1.80;;
33501;SDS011;22396;51.070;4.974;2023-07-28T01:54:35;3.45;;;1.70;;
33501;SDS011;22396;51.070;4.974;2023-07-28T01:57:00;3.85;;;1.88;;
33501;SDS011;22396;51.070;4.974;2023-07-28T01:59:28;6.95;;;1.90;;
33501;SDS011;22396;51.070;4.974;2023-07-28T02:01:56;3.85;;;1.70;;
33501;SDS011;22396;51.070;4.974;2023-07-28T02:04:23;2.88;;;1.63;;
33501;SDS011;22396;51.070;4.974;2023-07-28T02:06:48;3.85;;;1.67;;
33501;SDS011;22396;51.070;4.974;2023-07-28T02:09:17;2.13;;;1.52;;
33501;SDS011;22396;51.070;4.974;2023-07-28T02:11:42;2.90;;;1.50;;
33501;SDS011;22396;51.070;4.974;2023-07-28T02:14:07;1.88;;;1.35;;
33501;SDS011;22396;51.070;4.974;2023-07-28T02:16:33;3.70;;;2.08;;
33501;SDS011;22396;51.070;4.974;2023-07-28T02:18:58;2.78;;;1.70;;
33501;SDS011;22396;51.070;4.974;2023-07-28T02:21:23;2.85;;;1.80;;
33501;SDS011;22396;51.070;4.974;2023-07-28T02:23:49;3.75;;;1.38;;
33501;SDS011;22396;51.070;4.974;2023-07-28T02:26:14;3.35;;;1.90;;
33501;SDS011;22396;51.070;4.974;2023-07-28T02:28:45;3.85;;;1.90;;
33501;SDS011;22396;51.070;4.974;2023-07-28T02:31:10;4.78;;;2.50;;
33501;SDS011;22396;51.070;4.974;2023-07-28T02:33:36;3.28;;;1.77;;
33501;SDS011;22396;51.070;4.974;2023-07-28T02:36:02;5.18;;;2.47;;
33501;SDS011;22396;51.070;4.974;2023-07-28T02:38:27;4.95;;;2.08;;
33501;SDS011;22396;51.070;4.974;2023-07-28T02:40:53;3.58;;;2.20;;
33501;SDS011;22396;51.070;4.974;2023-07-28T02:43:21;4.40;;;2.35;;
33501;SDS011;22396;51.070;4.974;2023-07-28T02:45:56;4.05;;;1.95;;
33501;SDS011;22396;51.070;4.974;2023-07-28T02:48:21;5.00;;;2.60;;
33501;SDS011;22396;51.070;4.974;2023-07-28T02:50:48;7.50;;;2.78;;
33501;SDS011;22396;51.070;4.974;2023-07-28T02:53:13;5.20;;;2.38;;
33501;SDS011;22396;51.070;4.974;2023-07-28T02:55:42;8.25;;;2.45;;
33501;SDS011;22396;51.070;4.974;2023-07-28T02:58:08;5.78;;;2.47;;
33501;SDS011;22396;51.070;4.974;2023-07-28T03:00:39;7.03;;;2.55;;
33501;SDS011;22396;51.070;4.974;2023-07-28T03:03:05;5.45;;;3.10;;
33501;SDS011;22396;51.070;4.974;2023-07-28T03:05:31;6.78;;;2.55;;
33501;SDS011;22396;51.070;4.974;2023-07-28T03:07:56;13.38;;;3.08;;
33501;SDS011;22396;51.070;4.974;2023-07-28T03:10:24;6.05;;;2.88;;
33501;SDS011;22396;51.070;4.974;2023-07-28T03:12:49;5.35;;;2.78;;
33501;SDS011;22396;51.070;4.974;2023-07-28T03:15:15;6.03;;;2.92;;
33501;SDS011;22396;51.070;4.974;2023-07-28T03:17:40;6.75;;;2.90;;
33501;SDS011;22396;51.070;4.974;2023-07-28T03:20:05;5.85;;;2.88;;
33501;SDS011;22396;51.070;4.974;2023-07-28T03:22:31;5.80;;;3.03;;
33501;SDS011;22396;51.070;4.974;2023-07-28T03:24:56;4.82;;;2.90;;
33501;SDS011;22396;51.070;4.974;2023-07-28T03:27:22;5.85;;;3.13;;
33501;SDS011;22396;51.070;4.974;2023-07-28T03:29:47;6.18;;;2.75;;
33501;SDS011;22396;51.070;4.974;2023-07-28T03:32:12;6.40;;;3.53;;
33501;SDS011;22396;51.070;4.974;2023-07-28T03:34:38;5.93;;;2.88;;
33501;SDS011;22396;51.070;4.974;2023-07-28T03:37:03;7.00;;;2.70;;
33501;SDS011;22396;51.070;4.974;2023-07-28T03:39:31;4.32;;;2.55;;
33501;SDS011;22396;51.070;4.974;2023-07-28T03:41:57;6.10;;;3.00;;
33501;SDS011;22396;51.070;4.974;2023-07-28T03:44:23;7.35;;;3.45;;
33501;SDS011;22396;51.070;4.974;2023-07-28T03:46:51;8.23;;;3.00;;
33501;SDS011;22396;51.070;4.974;2023-07-28T03:49:16;5.82;;;3.00;;
33501;SDS011;22396;51.070;4.974;2023-07-28T03:51:45;7.30;;;2.95;;
33501;SDS011;22396;51.070;4.974;2023-07-28T03:54:14;10.43;;;3.47;;
33501;SDS011;22396;51.070;4.974;2023-07-28T03:56:39;7.25;;;2.50;;
33501;SDS011;22396;51.070;4.974;2023-07-28T03:59:05;7.75;;;2.97;;
33501;SDS011;22396;51.070;4.974;2023-07-28T04:01:32;7.47;;;2.85;;
33501;SDS011;22396;51.070;4.974;2023-07-28T04:03:58;8.18;;;2.80;;
33501;SDS011;22396;51.070;4.974;2023-07-28T04:06:41;9.93;;;2.90;;
33501;SDS011;22396;51.070;4.974;2023-07-28T04:09:07;9.23;;;2.92;;
33501;SDS011;22396;51.070;4.974;2023-07-28T04:11:33;5.18;;;2.35;;
33501;SDS011;22396;51.070;4.974;2023-07-28T04:13:58;10.10;;;3.42;;
33501;SDS011;22396;51.070;4.974;2023-07-28T04:16:24;7.85;;;3.20;;
33501;SDS011;22396;51.070;4.974;2023-07-28T04:18:49;5.53;;;2.72;;
33501;SDS011;22396;51.070;4.974;2023-07-28T04:21:14;8.30;;;3.83;;
33501;SDS011;22396;51.070;4.974;2023-07-28T04:23:40;8.38;;;3.30;;
33501;SDS011;22396;51.070;4.974;2023-07-28T04:26:06;8.30;;;3.20;;
33501;SDS011;22396;51.070;4.974;2023-07-28T04:28:31;7.18;;;2.88;;
33501;SDS011;22396;51.070;4.974;2023-07-28T04:30:56;9.48;;;3.88;;
33501;SDS011;22396;51.070;4.974;2023-07-28T04:33:21;13.30;;;4.03;;
33501;SDS011;22396;51.070;4.974;2023-07-28T04:35:47;9.02;;;3.63;;
33501;SDS011;22396;51.070;4.974;2023-07-28T04:38:12;10.57;;;3.63;;
33501;SDS011;22396;51.070;4.974;2023-07-28T04:40:43;8.05;;;3.33;;
33501;SDS011;22396;51.070;4.974;2023-07-28T04:43:08;16.75;;;4.28;;
33501;SDS011;22396;51.070;4.974;2023-07-28T04:45:33;10.52;;;3.80;;
33501;SDS011;22396;51.070;4.974;2023-07-28T04:47:59;14.18;;;3.95;;
33501;SDS011;22396;51.070;4.974;2023-07-28T04:50:24;10.85;;;3.80;;
33501;SDS011;22396;51.070;4.974;2023-07-28T04:52:49;8.02;;;3.58;;
33501;SDS011;22396;51.070;4.974;2023-07-28T04:55:15;11.95;;;5.10;;
33501;SDS011;22396;51.070;4.974;2023-07-28T04:57:40;12.18;;;4.30;;
33501;SDS011;22396;51.070;4.974;2023-07-28T05:00:08;10.65;;;4.07;;
33501;SDS011;22396;51.070;4.974;2023-07-28T05:02:34;13.65;;;4.40;;
33501;SDS011;22396;51.070;4.974;2023-07-28T05:05:12;11.82;;;4.20;;
33501;SDS011;22396;51.070;4.974;2023-07-28T05:07:37;17.02;;;4.30;;
33501;SDS011;22396;51.070;4.974;2023-07-28T05:10:02;10.73;;;4.40;;
33501;SDS011;22396;51.070;4.974;2023-07-28T05:12:28;14.30;;;4.68;;
33501;SDS011;22396;51.070;4.974;2023-07-28T05:14:54;11.68;;;3.95;;
33501;SDS011;22396;51.070;4.974;2023-07-28T05:17:19;12.32;;;4.72;;
33501;SDS011;22396;51.070;4.974;2023-07-28T05:19:44;13.90;;;4.45;;
33501;SDS011;22396;51.070;4.974;2023-07-28T05:22:10;14.73;;;4.80;;
33501;SDS011;22396;51.070;4.974;2023-07-28T05:24:35;11.75;;;4.43;;
33501;SDS011;22396;51.070;4.974;2023-07-28T05:27:04;11.75;;;4.15;;
33501;SDS011;22396;51.070;4.974;2023-07-28T05:29:29;16.75;;;4.78;;
33501;SDS011;22396;51.070;4.974;2023-07-28T05:31:54;11.60;;;4.07;;
33501;SDS011;22396;51.070;4.974;2023-07-28T05:34:20;12.85;;;4.30;;
33501;SDS011;22396;51.070;4.974;2023-07-28T05:36:48;8.98;;;3.70;;
33501;SDS011;22396;51.070;4.974;2023-07-28T05:39:13;12.77;;;3.78;;
33501;SDS011;22396;51.070;4.974;2023-07-28T05:41:39;8.65;;;3.25;;
33501;SDS011;22396;51.070;4.974;2023-07-28T05:44:04;10.48;;;4.20;;
33501;SDS011;22396;51.070;4.974;2023-07-28T05:46:29;9.82;;;3.65;;
33501;SDS011;22396;51.070;4.974;2023-07-28T05:48:55;12.00;;;3.90;;
33501;SDS011;22396;51.070;4.974;2023-07-28T05:51:21;10.55;;;4.28;;
33501;SDS011;22396;51.070;4.974;2023-07-28T05:53:49;9.27;;;3.42;;
33501;SDS011;22396;51.070;4.974;2023-07-28T05:56:18;9.63;;;3.22;;
33501;SDS011;22396;51.070;4.974;2023-07-28T05:58:47;9.85;;;3.03;;
33501;SDS011;22396;51.070;4.974;2023-07-28T06:01:12;8.57;;;3.50;;
33501;SDS011;22396;51.070;4.974;2023-07-28T06:03:38;10.10;;;3.75;;
33501;SDS011;22396;51.070;4.974;2023-07-28T06:06:03;11.50;;;3.85;;
33501;SDS011;22396;51.070;4.974;2023-07-28T06:08:28;7.88;;;3.88;;
33501;SDS011;22396;51.070;4.974;2023-07-28T06:10:54;9.85;;;3.90;;
33501;SDS011;22396;51.070;4.974;2023-07-28T06:13:19;9.63;;;3.60;;
33501;SDS011;22396;51.070;4.974;2023-07-28T06:15:45;7.22;;;2.85;;
33501;SDS011;22396;51.070;4.974;2023-07-28T06:18:11;11.23;;;3.42;;
33501;SDS011;22396;51.070;4.974;2023-07-28T06:20:36;6.90;;;2.95;;
33501;SDS011;22396;51.070;4.974;2023-07-28T06:23:02;10.30;;;3.80;;
33501;SDS011;22396;51.070;4.974;2023-07-28T06:25:27;6.70;;;2.47;;
33501;SDS011;22396;51.070;4.974;2023-07-28T06:27:52;8.60;;;2.97;;
33501;SDS011;22396;51.070;4.974;2023-07-28T06:30:18;7.53;;;2.80;;
33501;SDS011;22396;51.070;4.974;2023-07-28T06:32:43;5.30;;;2.50;;
33501;SDS011;22396;51.070;4.974;2023-07-28T06:35:09;6.00;;;2.63;;
33501;SDS011;22396;51.070;4.974;2023-07-28T06:37:37;9.02;;;2.60;;
33501;SDS011;22396;51.070;4.974;2023-07-28T06:40:06;6.15;;;1.88;;
33501;SDS011;22396;51.070;4.974;2023-07-28T06:42:34;5.25;;;1.98;;
33501;SDS011;22396;51.070;4.974;2023-07-28T06:44:59;8.02;;;1.80;;
33501;SDS011;22396;51.070;4.974;2023-07-28T06:47:27;5.70;;;2.17;;
33501;SDS011;22396;51.070;4.974;2023-07-28T06:49:56;4.38;;;1.88;;
33501;SDS011;22396;51.070;4.974;2023-07-28T06:52:21;4.10;;;1.38;;
33501;SDS011;22396;51.070;4.974;2023-07-28T06:54:48;4.43;;;1.38;;
33501;SDS011;22396;51.070;4.974;2023-07-28T06:57:14;3.83;;;1.50;;
33501;SDS011;22396;51.070;4.974;2023-07-28T06:59:43;1.85;;;1.20;;
33501;SDS011;22396;51.070;4.974;2023-07-28T07:02:08;4.95;;;0.93;;
33501;SDS011;22396;51.070;4.974;2023-07-28T07:04:34;1.30;;;0.88;;
33501;SDS011;22396;51.070;4.974;2023-07-28T07:07:00;1.92;;;0.80;;
33501;SDS011;22396;51.070;4.974;2023-07-28T07:09:25;2.10;;;0.98;;
33501;SDS011;22396;51.070;4.974;2023-07-28T07:11:50;1.33;;;0.80;;
33501;SDS011;22396;51.070;4.974;2023-07-28T07:14:16;3.83;;;0.88;;
33501;SDS011;22396;51.070;4.974;2023-07-28T07:16:44;0.88;;;0.68;;
33501;SDS011;22396;51.070;4.974;2023-07-28T07:19:09;0.80;;;0.60;;
33501;SDS011;22396;51.070;4.974;2023-07-28T07:21:34;1.00;;;0.60;;
33501;SDS011;22396;51.070;4.974;2023-07-28T07:24:00;1.38;;;0.70;;
33501;SDS011;22396;51.070;4.974;2023-07-28T07:26:25;0.55;;;0.40;;
33501;SDS011;22396;51.070;4.974;2023-07-28T07:28:50;3.13;;;0.50;;
33501;SDS011;22396;51.070;4.974;2023-07-28T07:31:15;0.40;;;0.30;;
33501;SDS011;22396;51.070;4.974;2023-07-28T07:33:44;2.38;;;0.30;;
33501;SDS011;22396;51.070;4.974;2023-07-28T07:36:13;1.65;;;0.30;;
33501;SDS011;22396;51.070;4.974;2023-07-28T07:38:38;0.25;;;0.20;;
33501;SDS011;22396;51.070;4.974;2023-07-28T07:41:04;0.40;;;0.40;;
33501;SDS011;22396;51.070;4.974;2023-07-28T07:43:32;1.00;;;0.40;;
33501;SDS011;22396;51.070;4.974;2023-07-28T07:45:58;0.82;;;0.40;;
33501;SDS011;22396;51.070;4.974;2023-07-28T07:48:23;1.02;;;0.57;;
33501;SDS011;22396;51.070;4.974;2023-07-28T07:50:49;0.40;;;0.35;;
33501;SDS011;22396;51.070;4.974;2023-07-28T07:53:14;0.35;;;0.32;;
33501;SDS011;22396;51.070;4.974;2023-07-28T07:55:40;0.75;;;0.38;;
33501;SDS011;22396;51.070;4.974;2023-07-28T07:58:06;0.70;;;0.50;;
33501;SDS011;22396;51.070;4.974;2023-07-28T08:00:32;0.30;;;0.30;;
33501;SDS011;22396;51.070;4.974;2023-07-28T08:02:57;1.98;;;0.40;;
33501;SDS011;22396;51.070;4.974;2023-07-28T08:05:23;0.77;;;0.50;;
33501;SDS011;22396;51.070;4.974;2023-07-28T08:07:48;0.50;;;0.50;;
33501;SDS011;22396;51.070;4.974;2023-07-28T08:10:15;1.65;;;0.50;;
33501;SDS011;22396;51.070;4.974;2023-07-28T08:12:40;0.45;;;0.35;;
33501;SDS011;22396;51.070;4.974;2023-07-28T08:15:07;0.95;;;0.30;;
33501;SDS011;22396;51.070;4.974;2023-07-28T08:17:32;0.95;;;0.50;;
33501;SDS011;22396;51.070;4.974;2023-07-28T08:19:58;0.22;;;0.20;;
33501;SDS011;22396;51.070;4.974;2023-07-28T08:22:23;0.45;;;0.28;;
33501;SDS011;22396;51.070;4.974;2023-07-28T08:24:50;0.40;;;0.40;;
33501;SDS011;22396;51.070;4.974;2023-07-28T08:27:15;0.80;;;0.50;;
33501;SDS011;22396;51.070;4.974;2023-07-28T08:29:41;1.10;;;0.50;;
33501;SDS011;22396;51.070;4.974;2023-07-28T08:32:06;0.70;;;0.50;;
33501;SDS011;22396;51.070;4.974;2023-07-28T08:34:32;1.08;;;0.55;;
33501;SDS011;22396;51.070;4.974;2023-07-28T08:36:57;1.95;;;0.43;;
33501;SDS011;22396;51.070;4.974;2023-07-28T08:39:22;3.10;;;0.57;;
33501;SDS011;22396;51.070;4.974;2023-07-28T08:41:48;0.60;;;0.52;;
33501;SDS011;22396;51.070;4.974;2023-07-28T08:44:22;0.55;;;0.47;;
33501;SDS011;22396;51.070;4.974;2023-07-28T08:46:47;0.50;;;0.40;;
33501;SDS011;22396;51.070;4.974;2023-07-28T08:49:13;0.60;;;0.35;;
33501;SDS011;22396;51.070;4.974;2023-07-28T08:51:41;0.40;;;0.40;;
33501;SDS011;22396;51.070;4.974;2023-07-28T08:54:07;0.30;;;0.28;;
33501;SDS011;22396;51.070;4.974;2023-07-28T08:56:32;0.73;;;0.30;;
33501;SDS011;22396;51.070;4.974;2023-07-28T08:58:58;0.30;;;0.22;;
33501;SDS011;22396;51.070;4.974;2023-07-28T09:01:27;3.33;;;0.38;;
33501;SDS011;22396;51.070;4.974;2023-07-28T09:03:52;0.60;;;0.40;;
33501;SDS011;22396;51.070;4.974;2023-07-28T09:06:17;0.55;;;0.40;;
33501;SDS011;22396;51.070;4.974;2023-07-28T09:08:44;0.55;;;0.32;;
33501;SDS011;22396;51.070;4.974;2023-07-28T09:11:10;0.43;;;0.25;;
33501;SDS011;22396;51.070;4.974;2023-07-28T09:13:41;0.82;;;0.40;;
33501;SDS011;22396;51.070;4.974;2023-07-28T09:19:05;0.50;;;0.38;;
33501;SDS011;22396;51.070;4.974;2023-07-28T09:21:32;3.38;;;0.50;;
33501;SDS011;22396;51.070;4.974;2023-07-28T09:24:03;0.77;;;0.40;;
33501;SDS011;22396;51.070;4.974;2023-07-28T09:26:47;0.70;;;0.45;;
33501;SDS011;22396;51.070;4.974;2023-07-28T09:29:18;2.38;;;0.70;;
33501;SDS011;22396;51.070;4.974;2023-07-28T09:31:47;0.40;;;0.38;;
33501;SDS011;22396;51.070;4.974;2023-07-28T09:34:22;0.77;;;0.50;;
33501;SDS011;22396;51.070;4.974;2023-07-28T09:36:48;1.67;;;0.70;;
33501;SDS011;22396;51.070;4.974;2023-07-28T09:39:13;1.83;;;0.60;;
33501;SDS011;22396;51.070;4.974;2023-07-28T09:41:40;0.60;;;0.45;;
33501;SDS011;22396;51.070;4.974;2023-07-28T09:44:05;0.60;;;0.40;;
33501;SDS011;22396;51.070;4.974;2023-07-28T09:46:34;0.50;;;0.40;;
33501;SDS011;22396;51.070;4.974;2023-07-28T09:49:04;0.50;;;0.40;;
33501;SDS011;22396;51.070;4.974;2023-07-28T09:51:30;0.63;;;0.43;;
33501;SDS011;22396;51.070;4.974;2023-07-28T09:54:10;0.98;;;0.35;;
33501;SDS011;22396;51.070;4.974;2023-07-28T09:56:39;1.30;;;0.30;;
33501;SDS011;22396;51.070;4.974;2023-07-28T09:59:10;0.45;;;0.40;;
33501;SDS011;22396;51.070;4.974;2023-07-28T10:01:36;1.25;;;0.40;;
33501;SDS011;22396;51.070;4.974;2023-07-28T10:04:02;0.52;;;0.30;;
33501;SDS011;22396;51.070;4.974;2023-07-28T10:06:27;0.85;;;0.50;;
33501;SDS011;22396;51.070;4.974;2023-07-28T10:08:53;0.38;;;0.22;;
33501;SDS011;22396;51.070;4.974;2023-07-28T10:11:21;0.70;;;0.40;;
33501;SDS011;22396;51.070;4.974;2023-07-28T10:13:47;0.60;;;0.40;;
33501;SDS011;22396;51.070;4.974;2023-07-28T10:16:12;0.68;;;0.40;;
33501;SDS011;22396;51.070;4.974;2023-07-28T10:18:40;0.73;;;0.50;;
33501;SDS011;22396;51.070;4.974;2023-07-28T10:21:06;1.02;;;0.40;;
33501;SDS011;22396;51.070;4.974;2023-07-28T10:23:36;0.35;;;0.28;;
33501;SDS011;22396;51.070;4.974;2023-07-28T10:26:10;0.45;;;0.22;;
33501;SDS011;22396;51.070;4.974;2023-07-28T10:28:39;0.55;;;0.40;;
33501;SDS011;22396;51.070;4.974;2023-07-28T10:31:07;0.85;;;0.45;;
33501;SDS011;22396;51.070;4.974;2023-07-28T10:33:41;1.05;;;0.50;;
33501;SDS011;22396;51.070;4.974;2023-07-28T10:38:39;1.05;;;0.40;;
33501;SDS011;22396;51.070;4.974;2023-07-28T10:41:05;0.60;;;0.50;;
33501;SDS011;22396;51.070;4.974;2023-07-28T10:43:34;2.05;;;0.60;;
33501;SDS011;22396;51.070;4.974;2023-07-28T10:45:59;0.88;;;0.50;;
33501;SDS011;22396;51.070;4.974;2023-07-28T10:48:25;0.90;;;0.50;;
33501;SDS011;22396;51.070;4.974;2023-07-28T10:50:53;1.08;;;0.65;;
33501;SDS011;22396;51.070;4.974;2023-07-28T10:53:18;1.42;;;0.73;;
33501;SDS011;22396;51.070;4.974;2023-07-28T10:55:44;1.33;;;0.80;;
33501;SDS011;22396;51.070;4.974;2023-07-28T10:58:09;2.42;;;0.98;;
33501;SDS011;22396;51.070;4.974;2023-07-28T11:00:34;2.13;;;0.80;;
33501;SDS011;22396;51.070;4.974;2023-07-28T11:03:03;0.77;;;0.60;;
33501;SDS011;22396;51.070;4.974;2023-07-28T11:05:29;0.70;;;0.50;;
33501;SDS011;22396;51.070;4.974;2023-07-28T11:07:55;0.50;;;0.40;;
33501;SDS011;22396;51.070;4.974;2023-07-28T11:10:21;0.73;;;0.52;;
33501;SDS011;22396;51.070;4.974;2023-07-28T11:12:52;1.02;;;0.45;;
33501;SDS011;22396;51.070;4.974;2023-07-28T11:15:20;0.52;;;0.40;;
33501;SDS011;22396;51.070;4.974;2023-07-28T11:17:46;0.60;;;0.50;;
33501;SDS011;22396;51.070;4.974;2023-07-28T11:20:19;1.02;;;0.50;;
33501;SDS011;22396;51.070;4.974;2023-07-28T11:22:57;0.75;;;0.60;;
33501;SDS011;22396;51.070;4.974;2023-07-28T11:25:23;2.05;;;0.70;;
33501;SDS011;22396;51.070;4.974;2023-07-28T11:27:52;1.67;;;0.70;;
33501;SDS011;22396;51.070;4.974;2023-07-28T11:30:19;0.60;;;0.50;;
33501;SDS011;22396;51.070;4.974;2023-07-28T11:32:45;1.15;;;0.70;;
33501;SDS011;22396;51.070;4.974;2023-07-28T11:35:11;1.70;;;1.00;;
33501;SDS011;22396;51.070;4.974;2023-07-28T11:37:37;1.80;;;0.90;;
33501;SDS011;22396;51.070;4.974;2023-07-28T11:40:03;1.10;;;0.77;;
33501;SDS011;22396;51.070;4.974;2023-07-28T11:42:34;4.10;;;0.88;;
33501;SDS011;22396;51.070;4.974;2023-07-28T11:45:00;1.55;;;0.90;;
33501;SDS011;22396;51.070;4.974;2023-07-28T11:47:26;1.83;;;0.85;;
33501;SDS011;22396;51.070;4.974;2023-07-28T11:49:51;1.45;;;0.90;;
33501;SDS011;22396;51.070;4.974;2023-07-28T11:52:18;1.02;;;0.75;;
33501;SDS011;22396;51.070;4.974;2023-07-28T11:54:43;4.55;;;1.08;;
33501;SDS011;22396;51.070;4.974;2023-07-28T11:57:09;4.15;;;1.08;;
33501;SDS011;22396;51.070;4.974;2023-07-28T11:59:35;1.33;;;0.82;;
33501;SDS011;22396;51.070;4.974;2023-07-28T12:02:01;1.50;;;0.88;;
33501;SDS011;22396;51.070;4.974;2023-07-28T12:04:37;1.95;;;0.90;;
33501;SDS011;22396;51.070;4.974;2023-07-28T12:07:04;1.77;;;0.73;;
33501;SDS011;22396;51.070;4.974;2023-07-28T12:09:31;2.80;;;1.10;;
33501;SDS011;22396;51.070;4.974;2023-07-28T12:11:57;3.60;;;1.35;;
33501;SDS011;22396;51.070;4.974;2023-07-28T12:14:34;2.78;;;0.98;;
33501;SDS011;22396;51.070;4.974;2023-07-28T12:16:59;3.40;;;1.00;;
33501;SDS011;22396;51.070;4.974;2023-07-28T12:19:26;2.35;;;0.90;;
33501;SDS011;22396;51.070;4.974;2023-07-28T12:21:51;5.43;;;1.00;;
33501;SDS011;22396;51.070;4.974;2023-07-28T12:24:19;1.08;;;0.60;;
33501;SDS011;22396;51.070;4.974;2023-07-28T12:26:50;0.80;;;0.60;;
33501;SDS011;22396;51.070;4.974;2023-07-28T12:29:16;1.73;;;0.70;;
33501;SDS011;22396;51.070;4.974;2023-07-28T12:31:42;1.13;;;0.60;;
33501;SDS011;22396;51.070;4.974;2023-07-28T12:34:11;0.75;;;0.50;;
33501;SDS011;22396;51.070;4.974;2023-07-28T12:36:37;0.63;;;0.50;;
33501;SDS011;22396;51.070;4.974;2023-07-28T12:39:02;0.63;;;0.50;;
33501;SDS011;22396;51.070;4.974;2023-07-28T12:41:28;1.75;;;0.63;;
33501;SDS011;22396;51.070;4.974;2023-07-28T12:43:54;1.00;;;0.80;;
33501;SDS011;22396;51.070;4.974;2023-07-28T12:46:22;2.95;;;1.10;;
33501;SDS011;22396;51.070;4.974;2023-07-28T12:48:47;2.38;;;1.13;;
33501;SDS011;22396;51.070;4.974;2023-07-28T12:51:12;2.72;;;1.17;;
33501;SDS011;22396;51.070;4.974;2023-07-28T12:53:38;2.47;;;1.50;;
33501;SDS011;22396;51.070;4.974;2023-07-28T12:56:05;2.45;;;1.20;;
33501;SDS011;22396;51.070;4.974;2023-07-28T12:58:31;2.53;;;1.63;;
33501;SDS011;22396;51.070;4.974;2023-07-28T13:00:56;2.78;;;1.50;;
33501;SDS011;22396;51.070;4.974;2023-07-28T13:03:26;2.90;;;1.40;;
33501;SDS011;22396;51.070;4.974;2023-07-28T13:05:51;1.92;;;1.02;;
33501;SDS011;22396;51.070;4.974;2023-07-28T13:08:17;2.03;;;1.30;;
33501;SDS011;22396;51.070;4.974;2023-07-28T13:10:42;2.50;;;1.10;;
33501;SDS011;22396;51.070;4.974;2023-07-28T13:13:07;2.38;;;1.05;;
33501;SDS011;22396;51.070;4.974;2023-07-28T13:15:32;2.65;;;1.20;;
33501;SDS011;22396;51.070;4.974;2023-07-28T13:17:58;3.03;;;1.00;;
33501;SDS011;22396;51.070;4.974;2023-07-28T13:20:23;3.15;;;1.30;;
33501;SDS011;22396;51.070;4.974;2023-07-28T13:22:48;4.80;;;1.50;;
33501;SDS011;22396;51.070;4.974;2023-07-28T13:25:14;3.40;;;2.10;;
33501;SDS011;22396;51.070;4.974;2023-07-28T13:27:39;2.08;;;1.27;;
33501;SDS011;22396;51.070;4.974;2023-07-28T13:30:04;3.55;;;1.33;;
33501;SDS011;22396;51.070;4.974;2023-07-28T13:32:30;2.85;;;1.30;;
33501;SDS011;22396;51.070;4.974;2023-07-28T13:34:57;3.25;;;1.27;;
33501;SDS011;22396;51.070;4.974;2023-07-28T13:37:23;2.13;;;1.10;;
33501;SDS011;22396;51.070;4.974;2023-07-28T13:39:48;1.83;;;1.20;;
33501;SDS011;22396;51.070;4.974;2023-07-28T13:42:14;2.90;;;1.02;;
33501;SDS011;22396;51.070;4.974;2023-07-28T13:44:40;1.70;;;1.10;;
33501;SDS011;22396;51.070;4.974;2023-07-28T13:47:09;3.45;;;1.55;;
33501;SDS011;22396;51.070;4.974;2023-07-28T13:49:34;1.90;;;1.20;;
33501;SDS011;22396;51.070;4.974;2023-07-28T13:52:03;2.67;;;1.00;;
33501;SDS011;22396;51.070;4.974;2023-07-28T13:54:28;2.42;;;0.90;;
33501;SDS011;22396;51.070;4.974;2023-07-28T13:56:54;2.38;;;0.80;;
33501;SDS011;22396;51.070;4.974;2023-07-28T13:59:21;1.65;;;0.90;;
33501;SDS011;22396;51.070;4.974;2023-07-28T14:01:48;1.27;;;0.77;;
33501;SDS011;22396;51.070;4.974;2023-07-28T14:04:13;1.52;;;0.80;;
33501;SDS011;22396;51.070;4.974;2023-07-28T14:06:39;2.08;;;1.05;;
33501;SDS011;22396;51.070;4.974;2023-07-28T14:09:04;1.83;;;0.85;;
33501;SDS011;22396;51.070;4.974;2023-07-28T14:11:30;3.58;;;0.98;;
33501;SDS011;22396;51.070;4.974;2023-07-28T14:13:56;2.30;;;0.85;;
33501;SDS011;22396;51.070;4.974;2023-07-28T14:16:21;1.60;;;0.90;;
33501;SDS011;22396;51.070;4.974;2023-07-28T14:18:46;2.05;;;0.77;;
33501;SDS011;22396;51.070;4.974;2023-07-28T14:21:13;2.42;;;1.00;;
33501;SDS011;22396;51.070;4.974;2023-07-28T14:23:38;1.67;;;0.93;;
33501;SDS011;22396;51.070;4.974;2023-07-28T14:26:04;2.67;;;1.00;;
33501;SDS011;22396;51.070;4.974;2023-07-28T14:28:29;1.50;;;0.77;;
33501;SDS011;22396;51.070;4.974;2023-07-28T14:30:55;1.40;;;0.80;;
33501;SDS011;22396;51.070;4.974;2023-07-28T14:33:20;2.60;;;0.98;;
33501;SDS011;22396;51.070;4.974;2023-07-28T14:35:46;1.88;;;1.17;;
33501;SDS011;22396;51.070;4.974;2023-07-28T14:38:14;1.98;;;0.82;;
33501;SDS011;22396;51.070;4.974;2023-07-28T14:40:40;4.28;;;1.30;;
33501;SDS011;22396;51.070;4.974;2023-07-28T14:43:08;2.60;;;1.00;;
33501;SDS011;22396;51.070;4.974;2023-07-28T14:45:34;1.85;;;1.00;;
33501;SDS011;22396;51.070;4.974;2023-07-28T14:48:00;2.15;;;0.90;;
33501;SDS011;22396;51.070;4.974;2023-07-28T14:50:26;1.95;;;0.95;;